Terminal Aerodrome Forecast
Issued by NWS

Home | Current Version | Previous Version | Graphics & Text | Print | Product List | Glossary On
Versions: 1 2 3 4 5 6 7 8 9 10 11 12 13 14 15 16 17
000
FTUS43 KICT 211140
TAFRSL
TAF
KRSL 211140Z 2112/2212 05013KT P6SM SCT050 OVC150
     FM211500 07017KT P6SM OVC050
     FM211800 05022G26KT P6SM BKN050
     FM220100 06013KT P6SM SCT060 BKN300=

USA.gov is the U.S. government's official web portal to all federal, state and local government web resources and services.